createdAt,value
2017-11-09T00:01:12.905Z,25.30
2017-11-09T00:03:47.609Z,25.70
2017-11-09T00:06:21.689Z,24.37
2017-11-09T00:08:50.016Z,25.13
2017-11-09T00:11:18.444Z,23.53
2017-11-09T00:13:46.788Z,23.30
2017-11-09T00:16:15.109Z,24.80
2017-11-09T00:18:44.406Z,24.40
2017-11-09T00:21:12.808Z,24.70
2017-11-09T00:23:41.910Z,25.40
2017-11-09T00:26:10.250Z,26.90
2017-11-09T00:28:38.598Z,23.80
2017-11-09T00:31:06.943Z,22.87
2017-11-09T00:33:35.299Z,24.10
2017-11-09T00:36:03.644Z,25.60
2017-11-09T00:38:33.033Z,24.40
2017-11-09T00:41:01.436Z,22.37
2017-11-09T00:43:29.795Z,25.53
2017-11-09T00:46:01.649Z,26.27
2017-11-09T00:48:30.762Z,24.97
2017-11-09T00:50:59.319Z,25.03
2017-11-09T00:53:27.796Z,23.83
2017-11-09T00:55:56.127Z,23.37
2017-11-09T00:58:24.529Z,27.07
2017-11-09T01:00:52.899Z,24.83
2017-11-09T01:03:21.211Z,25.57
2017-11-09T01:05:49.671Z,25.13
2017-11-09T01:08:18.024Z,26.57
2017-11-09T01:10:54.214Z,27.10
2017-11-09T01:13:22.583Z,25.40
2017-11-09T01:15:50.925Z,24.97
2017-11-09T01:18:19.335Z,24.33
2017-11-09T01:20:52.828Z,25.97
2017-11-09T01:23:22.102Z,26.10
2017-11-09T01:25:50.509Z,26.53
2017-11-09T01:28:19.693Z,28.87
2017-11-09T01:31:01.251Z,24.83
2017-11-09T01:33:29.584Z,26.00
2017-11-09T01:35:57.940Z,25.70
2017-11-09T01:38:26.282Z,22.83
2017-11-09T01:41:02.031Z,25.17
2017-11-09T01:43:30.386Z,25.70
2017-11-09T01:45:59.501Z,26.20
2017-11-09T01:48:27.794Z,28.27
2017-11-09T01:50:56.107Z,25.77
2017-11-09T01:53:24.441Z,27.63
2017-11-09T01:55:52.771Z,28.53
2017-11-09T01:58:21.135Z,24.77
2017-11-09T02:00:52.209Z,25.40
2017-11-09T02:03:20.649Z,28.07
2017-11-09T02:05:48.998Z,24.20
2017-11-09T02:08:19.064Z,27.67
2017-11-09T02:10:47.446Z,25.40
2017-11-09T02:13:15.773Z,25.97
2017-11-09T02:15:44.126Z,24.87
2017-11-09T02:18:12.446Z,28.40
2017-11-09T02:20:40.845Z,26.83
2017-11-09T02:23:09.849Z,23.27
2017-11-09T02:25:38.177Z,23.37
2017-11-09T02:28:06.500Z,28.03
2017-11-09T02:30:34.887Z,27.10
2017-11-09T02:33:03.373Z,24.87
2017-11-09T02:35:31.808Z,25.63
2017-11-09T02:38:00.649Z,24.20
2017-11-09T02:40:29.223Z,24.83
2017-11-09T02:42:57.606Z,24.67
2017-11-09T02:45:26.729Z,27.10
2017-11-09T02:47:57.827Z,24.23
2017-11-09T02:50:26.204Z,26.73
2017-11-09T02:52:54.685Z,25.57
2017-11-09T02:55:23.121Z,25.00
2017-11-09T02:57:51.434Z,23.80
2017-11-09T03:00:20.544Z,24.90
2017-11-09T03:02:49.678Z,23.77
2017-11-09T03:05:18.807Z,23.87
2017-11-09T03:07:47.180Z,25.50
2017-11-09T03:10:15.514Z,26.30
2017-11-09T03:12:43.929Z,25.20
2017-11-09T03:15:12.270Z,24.83
2017-11-09T03:17:42.621Z,23.70
2017-11-09T03:20:10.982Z,23.93
2017-11-09T03:22:39.323Z,24.23
2017-11-09T03:25:07.673Z,22.03
2017-11-09T03:27:36.056Z,24.43
2017-11-09T03:30:06.993Z,23.30
2017-11-09T03:32:35.289Z,23.67
2017-11-09T03:35:05.576Z,25.17
2017-11-09T03:37:33.901Z,25.17
2017-11-09T03:40:02.197Z,23.80
2017-11-09T03:42:30.578Z,24.77
2017-11-09T03:44:58.965Z,25.20
2017-11-09T03:47:27.349Z,25.10
2017-11-09T03:49:55.676Z,22.77
2017-11-09T03:52:24.004Z,24.23
2017-11-09T03:54:55.078Z,23.90
2017-11-09T03:57:24.156Z,23.70
2017-11-09T03:59:52.525Z,23.27
2017-11-09T04:02:20.839Z,24.20
2017-11-09T04:04:49.190Z,22.73
2017-11-09T04:07:17.511Z,24.97
2017-11-09T04:09:45.877Z,24.60
2017-11-09T04:12:14.205Z,23.20
2017-11-09T04:14:42.552Z,24.20
2017-11-09T04:17:10.858Z,25.40
2017-11-09T04:19:39.246Z,26.33
2017-11-09T04:22:08.314Z,22.40
2017-11-09T04:24:36.608Z,24.10
2017-11-09T04:27:10.575Z,24.50
2017-11-09T04:29:38.889Z,23.17
2017-11-09T04:32:08.043Z,26.87
2017-11-09T04:34:36.561Z,27.03
2017-11-09T04:37:04.901Z,26.33
2017-11-09T04:39:33.225Z,24.70
2017-11-09T04:42:01.578Z,26.13
2017-11-09T04:44:29.892Z,27.90
2017-11-09T04:46:58.287Z,24.30
2017-11-09T04:49:26.628Z,24.40
2017-11-09T04:51:55.041Z,27.70
2017-11-09T04:54:24.219Z,26.53
2017-11-09T04:56:52.537Z,25.83
2017-11-09T04:59:20.889Z,25.40
2017-11-09T05:01:49.232Z,27.27
2017-11-09T05:04:17.562Z,25.20
2017-11-09T05:06:47.806Z,27.87
2017-11-09T05:09:16.961Z,25.17
2017-11-09T05:11:45.285Z,26.07
2017-11-09T05:14:16.966Z,26.27
2017-11-09T05:16:45.347Z,25.10
2017-11-09T05:19:14.545Z,25.10
2017-11-09T05:21:42.861Z,25.53
2017-11-09T05:24:12.162Z,25.33
2017-11-09T05:26:40.476Z,26.63
2017-11-09T05:29:08.810Z,24.47
2017-11-09T05:31:37.129Z,28.73
2017-11-09T05:34:05.587Z,27.70
2017-11-09T05:36:33.950Z,25.57
2017-11-09T05:39:06.309Z,25.63
2017-11-09T05:41:35.357Z,25.40
2017-11-09T05:44:05.640Z,26.73
2017-11-09T05:46:33.989Z,27.53
2017-11-09T05:49:05.782Z,27.37
2017-11-09T05:51:38.714Z,22.90
2017-11-09T05:54:07.078Z,32.92
2017-11-09T05:56:35.402Z,28.90
2017-11-09T05:59:03.723Z,25.17
2017-11-09T06:01:32.035Z,27.13
2017-11-09T06:04:00.512Z,24.83
2017-11-09T06:06:28.845Z,25.33
2017-11-09T06:08:57.202Z,27.33
2017-11-09T06:11:25.520Z,22.17
2017-11-09T06:13:53.866Z,28.10
2017-11-09T06:16:22.608Z,25.60
2017-11-09T06:18:51.019Z,26.47
2017-11-09T06:21:20.109Z,28.43
2017-11-09T06:23:48.404Z,28.63
2017-11-09T06:26:16.790Z,24.30
2017-11-09T06:28:45.146Z,29.73
2017-11-09T06:31:14.244Z,23.70
2017-11-09T06:33:45.858Z,24.10
2017-11-09T06:36:14.938Z,26.47
2017-11-09T06:38:43.269Z,32.57
2017-11-09T06:41:12.398Z,26.10
2017-11-09T06:43:41.482Z,25.77
2017-11-09T06:46:10.834Z,25.57
2017-11-09T06:48:39.899Z,27.07
2017-11-09T06:51:09.436Z,25.77
2017-11-09T06:53:37.749Z,25.47
2017-11-09T06:56:06.100Z,24.50
2017-11-09T06:58:36.418Z,26.13
2017-11-09T07:01:07.803Z,23.87
2017-11-09T07:03:36.111Z,25.13
2017-11-09T07:06:04.421Z,25.10
2017-11-09T07:08:34.468Z,27.07
2017-11-09T07:11:03.539Z,28.60
2017-11-09T07:13:31.849Z,27.73
2017-11-09T07:16:00.160Z,28.93
2017-11-09T07:18:28.462Z,26.57
2017-11-09T07:20:56.776Z,26.83
2017-11-09T07:23:25.091Z,24.47
2017-11-09T07:25:53.388Z,27.23
2017-11-09T07:28:21.699Z,23.90
2017-11-09T07:30:50.757Z,25.33
2017-11-09T07:33:19.080Z,24.60
2017-11-09T07:35:47.371Z,24.33
2017-11-09T07:38:15.687Z,26.10
2017-11-09T07:40:44.014Z,27.77
2017-11-09T07:43:12.380Z,23.80
2017-11-09T07:45:40.782Z,26.00
2017-11-09T07:48:09.122Z,25.37
2017-11-09T07:50:37.440Z,26.27
2017-11-09T07:53:06.516Z,32.70
2017-11-09T07:55:34.800Z,30.37
2017-11-09T07:58:04.013Z,24.63
2017-11-09T08:00:32.324Z,24.63
2017-11-09T08:03:00.635Z,24.47
2017-11-09T08:05:28.994Z,26.57
2017-11-09T08:07:58.036Z,25.30
2017-11-09T08:10:26.363Z,27.03
2017-11-09T08:12:54.691Z,28.63
2017-11-09T08:15:23.016Z,26.00
2017-11-09T08:17:52.081Z,27.37
2017-11-09T08:20:20.382Z,27.53
2017-11-09T08:22:48.706Z,24.57
2017-11-09T08:25:19.141Z,25.70
2017-11-09T08:27:48.902Z,26.40
2017-11-09T08:30:23.337Z,26.13
2017-11-09T08:32:51.957Z,22.87
2017-11-09T08:35:20.290Z,24.80
2017-11-09T08:37:48.588Z,24.80
2017-11-09T08:40:16.901Z,23.63
2017-11-09T08:42:45.827Z,24.33
2017-11-09T08:45:14.136Z,27.63
2017-11-09T08:47:42.431Z,26.70
2017-11-09T08:50:10.886Z,24.13
2017-11-09T08:52:40.192Z,25.20
2017-11-09T08:55:08.504Z,25.93
2017-11-09T08:57:36.803Z,24.80
2017-11-09T09:00:05.096Z,26.60
2017-11-09T09:02:33.403Z,24.77
2017-11-09T09:05:01.707Z,27.33
2017-11-09T09:07:29.985Z,27.20
2017-11-09T09:09:58.328Z,27.87
2017-11-09T09:12:27.390Z,27.10
2017-11-09T09:14:55.678Z,24.77
2017-11-09T09:17:24.031Z,26.30
2017-11-09T09:19:52.316Z,26.20
2017-11-09T09:22:21.931Z,25.27
2017-11-09T09:24:50.209Z,25.60
2017-11-09T09:27:35.095Z,23.67
2017-11-09T09:30:08.707Z,26.13
2017-11-09T09:32:40.940Z,25.30
2017-11-09T09:35:11.904Z,24.00
2017-11-09T09:37:42.233Z,23.17
2017-11-09T09:40:14.976Z,28.30
2017-11-09T09:42:43.306Z,23.67
2017-11-09T09:45:12.114Z,25.30
2017-11-09T09:47:41.331Z,24.43
2017-11-09T09:50:09.666Z,25.83
2017-11-09T09:52:38.724Z,22.90
2017-11-09T09:55:07.089Z,24.33
2017-11-09T09:57:35.405Z,24.10
2017-11-09T10:00:04.533Z,22.20
2017-11-09T10:02:33.711Z,23.00
2017-11-09T10:05:01.989Z,21.57
2017-11-09T10:07:30.288Z,24.07
2017-11-09T10:10:01.589Z,25.47
2017-11-09T10:12:29.889Z,22.50
2017-11-09T10:14:58.200Z,21.00
2017-11-09T10:17:26.501Z,19.17
2017-11-09T10:19:54.824Z,23.63
2017-11-09T10:22:24.837Z,20.90
2017-11-09T10:24:53.178Z,22.70
2017-11-09T10:27:21.472Z,19.03
2017-11-09T10:29:49.804Z,23.53
2017-11-09T10:32:18.100Z,22.23
2017-11-09T10:34:46.400Z,24.67
2017-11-09T10:37:15.473Z,23.37
2017-11-09T10:39:43.801Z,23.27
2017-11-09T10:42:12.149Z,23.97
2017-11-09T10:44:40.450Z,22.37
2017-11-09T10:47:08.837Z,22.60
2017-11-09T10:49:37.905Z,22.20
2017-11-09T10:52:06.192Z,22.60
2017-11-09T10:54:34.507Z,21.83
2017-11-09T10:57:02.818Z,24.10
2017-11-09T10:59:31.184Z,23.93
2017-11-09T11:01:59.498Z,24.27
2017-11-09T11:04:27.789Z,25.73
2017-11-09T11:06:56.159Z,24.23
2017-11-09T11:09:24.493Z,24.23
2017-11-09T11:11:52.821Z,23.60
2017-11-09T11:14:21.129Z,22.13
2017-11-09T11:16:49.428Z,24.50
2017-11-09T11:19:17.756Z,24.77
2017-11-09T11:21:49.270Z,24.53
2017-11-09T11:24:21.625Z,23.40
2017-11-09T11:26:49.970Z,25.10
2017-11-09T11:29:18.321Z,25.27
2017-11-09T11:31:46.641Z,24.93
2017-11-09T11:34:14.964Z,23.73
2017-11-09T11:36:44.035Z,23.17
2017-11-09T11:39:12.332Z,21.97
2017-11-09T11:41:40.674Z,22.67
2017-11-09T11:44:08.984Z,23.57
2017-11-09T11:46:37.407Z,21.40
2017-11-09T11:49:06.156Z,24.70
2017-11-09T11:51:34.436Z,20.53
2017-11-09T11:54:02.775Z,22.13
2017-11-09T11:56:31.090Z,21.67
2017-11-09T11:59:00.150Z,19.80
2017-11-09T12:01:29.436Z,21.77
2017-11-09T12:03:58.495Z,19.30
2017-11-09T12:06:27.385Z,17.87
2017-11-09T12:08:56.429Z,18.37
2017-11-09T12:11:24.740Z,19.20
2017-11-09T12:13:53.048Z,16.40
2017-11-09T12:16:21.361Z,16.37
2017-11-09T12:18:50.636Z,18.07
2017-11-09T12:21:18.926Z,18.67
2017-11-09T12:23:47.260Z,17.50
2017-11-09T12:26:15.546Z,18.30
2017-11-09T12:28:43.846Z,17.40
2017-11-09T12:31:12.648Z,21.03
2017-11-09T12:33:40.938Z,17.60
2017-11-09T12:36:10.020Z,18.67
2017-11-09T12:38:39.117Z,19.23
2017-11-09T12:41:07.405Z,17.60
2017-11-09T12:43:35.726Z,20.23
2017-11-09T12:46:04.064Z,17.17
2017-11-09T12:48:34.333Z,17.43
2017-11-09T12:51:02.652Z,19.80
2017-11-09T12:53:30.986Z,18.13
2017-11-09T12:56:00.067Z,19.63
2017-11-09T12:58:28.389Z,19.83
2017-11-09T13:00:56.716Z,17.37
2017-11-09T13:03:25.811Z,17.83
2017-11-09T13:05:54.140Z,16.87
2017-11-09T13:08:22.444Z,19.47
2017-11-09T13:10:51.528Z,18.17
2017-11-09T13:13:19.831Z,18.47
2017-11-09T13:15:48.145Z,18.00
2017-11-09T13:18:17.252Z,17.13
2017-11-09T13:20:45.592Z,17.30
2017-11-09T13:23:14.692Z,16.07
2017-11-09T13:25:42.972Z,19.17
2017-11-09T13:28:12.229Z,18.10
2017-11-09T13:30:40.563Z,21.07
2017-11-09T13:33:08.883Z,19.33
2017-11-09T13:35:37.190Z,17.93
2017-11-09T13:38:05.533Z,17.60
2017-11-09T13:40:33.861Z,18.37
2017-11-09T13:43:04.602Z,18.13
2017-11-09T13:45:33.691Z,16.60
2017-11-09T13:48:01.976Z,16.80
2017-11-09T13:50:30.580Z,18.83
2017-11-09T13:52:58.944Z,19.10
2017-11-09T13:55:27.275Z,17.77
2017-11-09T13:57:55.736Z,17.73
2017-11-09T14:00:24.052Z,16.57
2017-11-09T14:02:52.533Z,16.40
2017-11-09T14:05:23.837Z,17.53
2017-11-09T14:07:52.211Z,17.57
2017-11-09T14:10:21.313Z,17.50
2017-11-09T14:12:49.642Z,18.80
2017-11-09T14:15:18.739Z,16.90
2017-11-09T14:17:47.084Z,16.10
2017-11-09T14:20:15.428Z,17.50
2017-11-09T14:22:43.734Z,19.93
2017-11-09T14:25:12.023Z,18.27
2017-11-09T14:27:40.385Z,16.40
2017-11-09T14:30:09.472Z,19.27
2017-11-09T14:32:37.806Z,17.57
2017-11-09T14:35:06.911Z,17.90
2017-11-09T14:37:35.991Z,18.50
2017-11-09T14:40:04.281Z,18.67
2017-11-09T14:42:32.598Z,18.37
2017-11-09T14:45:00.912Z,19.20
2017-11-09T14:47:29.397Z,18.50
2017-11-09T14:49:57.708Z,18.37
2017-11-09T14:52:26.020Z,21.33
2017-11-09T14:54:54.343Z,19.63
2017-11-09T14:57:23.457Z,17.33
2017-11-09T14:59:51.760Z,18.07
2017-11-09T15:02:20.075Z,18.07
2017-11-09T15:04:49.200Z,20.53
2017-11-09T15:07:21.768Z,18.30
2017-11-09T15:09:50.107Z,18.00
2017-11-09T15:12:18.461Z,17.90
2017-11-09T15:14:46.799Z,20.03
2017-11-09T15:17:15.878Z,19.20
2017-11-09T15:19:45.048Z,18.10
2017-11-09T15:22:14.134Z,17.40
2017-11-09T15:24:47.305Z,18.10
2017-11-09T15:27:16.555Z,16.53
2017-11-09T15:29:44.870Z,18.77
2017-11-09T15:32:13.204Z,17.40
2017-11-09T15:34:41.712Z,16.23
2017-11-09T15:37:10.024Z,18.57
2017-11-09T15:39:38.342Z,17.47
2017-11-09T15:42:06.677Z,17.97
2017-11-09T15:44:34.960Z,17.90
2017-11-09T15:47:04.004Z,16.90
2017-11-09T15:49:32.332Z,19.23
2017-11-09T15:52:00.655Z,17.80
2017-11-09T15:54:28.936Z,16.33
2017-11-09T15:56:57.260Z,17.40
2017-11-09T15:59:25.624Z,16.00
2017-11-09T16:01:53.933Z,16.30
2017-11-09T16:04:22.256Z,16.27
2017-11-09T16:06:50.585Z,16.30
2017-11-09T16:09:18.888Z,16.37
2017-11-09T16:11:47.188Z,17.70
2017-11-09T16:14:15.552Z,16.77
2017-11-09T16:16:43.872Z,18.00
2017-11-09T16:19:15.092Z,17.40
2017-11-09T16:21:44.188Z,18.40
2017-11-09T16:24:12.498Z,17.10
2017-11-09T16:26:41.621Z,18.93
2017-11-09T16:29:09.996Z,18.10
2017-11-09T16:31:38.280Z,16.90
2017-11-09T16:34:06.615Z,16.70
2017-11-09T16:36:34.899Z,17.57
2017-11-09T16:39:03.208Z,15.50
2017-11-09T16:41:31.609Z,17.40
2017-11-09T16:43:59.907Z,15.67
2017-11-09T16:46:28.253Z,16.53
2017-11-09T16:48:56.599Z,15.80
2017-11-09T16:51:24.933Z,17.57
2017-11-09T16:53:53.252Z,14.40
2017-11-09T16:56:22.514Z,16.20
2017-11-09T16:58:51.816Z,17.67
2017-11-09T17:01:20.145Z,16.23
2017-11-09T17:03:48.556Z,15.87
2017-11-09T17:06:18.863Z,20.60
2017-11-09T17:08:47.218Z,15.67
2017-11-09T17:11:15.513Z,15.27
2017-11-09T17:13:43.851Z,15.30
2017-11-09T17:16:12.178Z,18.80
2017-11-09T17:18:40.485Z,15.97
2017-11-09T17:21:08.874Z,15.90
2017-11-09T17:23:37.968Z,15.30
2017-11-09T17:26:08.355Z,15.63
2017-11-09T17:28:36.719Z,14.83
2017-11-09T17:31:05.014Z,13.50
2017-11-09T17:33:33.372Z,14.57
2017-11-09T17:36:01.791Z,15.63
2017-11-09T17:38:30.093Z,17.70
2017-11-09T17:40:59.382Z,16.00
2017-11-09T17:43:28.493Z,13.50
2017-11-09T17:45:56.824Z,15.33
2017-11-09T17:48:25.172Z,16.40
2017-11-09T17:50:53.474Z,15.80
2017-11-09T17:53:23.704Z,14.73
2017-11-09T17:55:52.067Z,22.03
2017-11-09T17:58:20.336Z,15.83
2017-11-09T18:00:48.645Z,26.87
2017-11-09T18:03:17.001Z,16.10
2017-11-09T18:05:45.300Z,15.90
2017-11-09T18:08:13.659Z,18.10
2017-11-09T18:10:41.976Z,16.70
2017-11-09T18:13:10.371Z,14.50
2017-11-09T18:15:38.694Z,25.13
2017-11-09T18:18:13.703Z,13.50
2017-11-09T18:20:42.053Z,13.13
2017-11-09T18:23:14.287Z,14.87
2017-11-09T18:25:42.613Z,13.90
2017-11-09T18:28:10.968Z,14.63
2017-11-09T18:30:39.300Z,16.03
2017-11-09T18:33:07.660Z,16.80
2017-11-09T18:35:35.999Z,18.00
2017-11-09T18:38:05.116Z,15.90
2017-11-09T18:43:44.424Z,16.30
2017-11-09T18:46:13.491Z,17.27
2017-11-09T18:48:41.822Z,15.80
2017-11-09T18:51:10.996Z,16.10
2017-11-09T18:53:39.308Z,19.30
2017-11-09T18:56:07.611Z,19.80
2017-11-09T18:58:36.716Z,18.37
2017-11-09T19:01:07.880Z,17.83
2017-11-09T19:03:36.222Z,14.93
2017-11-09T19:06:05.315Z,18.80
2017-11-09T19:08:33.628Z,18.13
2017-11-09T19:11:02.982Z,16.80
2017-11-09T19:13:32.033Z,17.00
2017-11-09T19:16:02.366Z,15.00
2017-11-09T19:18:30.714Z,16.43
2017-11-09T19:20:59.003Z,14.30
2017-11-09T19:23:27.328Z,17.63
2017-11-09T19:25:55.620Z,16.97
2017-11-09T19:28:24.701Z,17.47
2017-11-09T19:30:53.131Z,15.70
2017-11-09T19:33:22.310Z,15.50
2017-11-09T19:35:55.311Z,18.27
2017-11-09T19:38:31.825Z,17.50
2017-11-09T19:41:01.118Z,18.70
2017-11-09T19:43:29.465Z,16.30
2017-11-09T19:45:58.737Z,17.57
2017-11-09T19:48:27.182Z,16.83
2017-11-09T19:50:55.552Z,17.17
2017-11-09T19:53:27.305Z,14.93
2017-11-09T19:55:55.696Z,17.40
2017-11-09T19:58:25.825Z,17.93
2017-11-09T20:00:54.183Z,17.50
2017-11-09T20:03:22.509Z,19.50
2017-11-09T20:05:51.021Z,16.30
2017-11-09T20:08:19.457Z,16.00
2017-11-09T20:10:47.841Z,17.43
2017-11-09T20:13:16.183Z,16.90
2017-11-09T20:15:44.517Z,19.13
2017-11-09T20:18:12.849Z,26.07
2017-11-09T20:20:41.176Z,15.97
2017-11-09T20:23:10.345Z,16.90
2017-11-09T20:25:38.668Z,15.20
2017-11-09T20:28:06.980Z,15.33
2017-11-09T20:30:36.285Z,16.70
2017-11-09T20:33:04.643Z,14.17
2017-11-09T20:35:32.980Z,13.83
2017-11-09T20:38:02.104Z,14.00
2017-11-09T20:40:31.182Z,15.27
2017-11-09T20:42:59.469Z,14.07
2017-11-09T20:45:27.796Z,14.83
2017-11-09T20:47:56.205Z,16.17
2017-11-09T20:50:24.562Z,14.50
2017-11-09T20:52:53.637Z,12.87
2017-11-09T20:55:22.021Z,13.00
2017-11-09T20:57:50.423Z,13.00
2017-11-09T21:00:18.791Z,15.00
2017-11-09T21:02:50.101Z,15.03
2017-11-09T21:05:18.465Z,13.20
2017-11-09T21:07:46.776Z,12.57
2017-11-09T21:10:19.954Z,12.57
2017-11-09T21:12:48.330Z,11.80
2017-11-09T21:15:16.660Z,11.80
2017-11-09T21:17:44.966Z,12.30
2017-11-09T21:20:13.291Z,14.10
2017-11-09T21:22:42.544Z,12.30
2017-11-09T21:25:11.665Z,12.87
2017-11-09T21:27:39.962Z,20.30
2017-11-09T21:30:08.333Z,13.10
2017-11-09T21:32:36.638Z,12.33
2017-11-09T21:35:04.965Z,12.57
2017-11-09T21:37:34.468Z,11.87
2017-11-09T21:40:02.839Z,11.90
2017-11-09T21:42:33.223Z,12.13
2017-11-09T21:45:01.630Z,12.63
2017-11-09T21:47:29.938Z,12.20
2017-11-09T21:49:58.286Z,12.80
2017-11-09T21:52:26.609Z,12.30
2017-11-09T21:54:54.905Z,13.63
2017-11-09T21:57:23.255Z,11.70
2017-11-09T21:59:52.441Z,11.90
2017-11-09T22:02:20.790Z,12.23
2017-11-09T22:04:49.987Z,12.50
2017-11-09T22:07:18.296Z,12.60
2017-11-09T22:09:47.388Z,11.80
2017-11-09T22:12:16.486Z,12.93
2017-11-09T22:14:44.864Z,12.57
2017-11-09T22:17:13.248Z,12.87
2017-11-09T22:19:42.812Z,10.87
2017-11-09T22:22:11.954Z,12.17
2017-11-09T22:24:41.124Z,13.13
2017-11-09T22:27:09.449Z,12.93
2017-11-09T22:29:38.209Z,12.60
2017-11-09T22:32:06.616Z,12.00
2017-11-09T22:34:35.692Z,12.77
2017-11-09T22:37:04.043Z,13.67
2017-11-09T22:39:32.424Z,12.00
2017-11-09T22:42:00.742Z,11.53
2017-11-09T22:44:29.058Z,12.20
2017-11-09T22:46:57.436Z,12.30
2017-11-09T22:49:25.733Z,12.33
2017-11-09T22:51:54.099Z,12.30
2017-11-09T22:54:23.228Z,10.67
2017-11-09T22:56:52.328Z,12.40
2017-11-09T22:59:20.688Z,12.17
2017-11-09T23:01:49.003Z,11.63
2017-11-09T23:04:17.280Z,11.87
2017-11-09T23:06:46.373Z,12.33
2017-11-09T23:09:14.704Z,10.40
2017-11-09T23:11:43.107Z,11.20
2017-11-09T23:14:12.213Z,12.33
2017-11-09T23:16:40.607Z,11.57
2017-11-09T23:19:08.959Z,11.63
2017-11-09T23:21:37.267Z,13.10
2017-11-09T23:24:05.621Z,11.90
2017-11-09T23:26:33.950Z,11.50
2017-11-09T23:29:08.808Z,11.97
2017-11-09T23:31:37.124Z,12.50
2017-11-09T23:34:05.467Z,10.97
2017-11-09T23:36:33.881Z,13.10
2017-11-09T23:39:02.202Z,11.93
2017-11-09T23:41:30.554Z,11.83
2017-11-09T23:43:58.918Z,9.20
2017-11-09T23:46:27.231Z,13.40
2017-11-09T23:48:55.535Z,12.40
2017-11-09T23:51:23.872Z,13.10
2017-11-09T23:53:52.215Z,12.70
2017-11-09T23:56:21.304Z,14.10
2017-11-09T23:58:49.934Z,13.67
